Time;durP1;ratioP1;P1;durP2;ratioP2;P2;SDS_P1;SDS_P2;PMS_P1;PMS_P2;Temp;Humidity;BMP_temperature;BMP_pressure;BME280_temperature;BME280_humidity;BME280_pressure;Samples;Min_cycle;Max_cycle;Signal;HPM_P1;HPM_P2
2022/09/04 00:01:45;;;;;;;4.45;1.73;;;16.80;25.00;;;;;;5052401;28;20045;-59
2022/09/04 00:04:49;;;;;;;2.00;1.80;;;16.80;22.40;;;;;;5049974;28;20056;-58
2022/09/04 00:07:27;;;;;;;4.53;1.50;;;16.80;20.20;;;;;;4996483;28;20041;-58
2022/09/04 00:10:10;;;;;;;5.38;2.08;;;16.80;20.00;;;;;;5034447;28;20036;-58
2022/09/04 00:13:03;;;;;;;3.30;1.63;;;16.80;19.80;;;;;;5035829;28;20064;-58
2022/09/04 00:15:34;;;;;;;3.20;1.70;;;16.80;18.80;;;;;;5051541;28;20041;-59
2022/09/04 00:18:09;;;;;;;3.70;1.50;;;17.80;19.40;;;;;;5043762;28;20414;-58
2022/09/04 00:20:48;;;;;;;5.28;1.80;;;16.70;20.80;;;;;;5032111;28;20041;-58
2022/09/04 00:23:35;;;;;;;5.88;1.52;;;16.60;21.90;;;;;;5046526;28;20037;-58
2022/09/04 00:26:19;;;;;;;4.53;1.83;;;16.60;25.70;;;;;;5051011;28;20040;-58
2022/09/04 00:28:48;;;;;;;5.80;1.90;;;16.50;30.10;;;;;;5051187;28;20608;-59
2022/09/04 00:31:40;;;;;;;6.00;1.40;;;16.50;34.50;;;;;;5051787;28;20112;-58
2022/09/04 00:34:44;;;;;;;4.22;1.63;;;16.50;39.00;;;;;;5043856;28;20533;-58
2022/09/04 00:37:15;;;;;;;3.97;1.63;;;16.50;44.90;;;;;;5051125;28;20110;-58
2022/09/04 00:39:57;;;;;;;3.40;1.95;;;16.40;50.10;;;;;;5051262;28;20044;-59
2022/09/04 00:42:41;;;;;;;5.03;1.65;;;16.30;55.50;;;;;;5046504;28;20124;-58
2022/09/04 00:45:16;;;;;;;7.25;1.90;;;16.30;62.70;;;;;;5051607;28;20033;-59
2022/09/04 00:48:26;;;;;;;8.07;1.90;;;16.20;72.70;;;;;;5044147;28;20046;-59
2022/09/04 00:51:13;;;;;;;5.95;1.63;;;16.20;85.40;;;;;;5049794;28;20065;-58
2022/09/04 00:53:48;;;;;;;4.40;1.95;;;16.10;93.10;;;;;;5049579;28;20577;-58
2022/09/04 00:56:51;;;;;;;3.78;1.75;;;16.00;99.90;;;;;;5049476;28;20033;-58
2022/09/04 00:59:19;;;;;;;4.30;1.70;;;15.90;99.90;;;;;;5049705;28;20072;-59
2022/09/04 01:01:46;;;;;;;2.75;1.73;;;15.90;99.90;;;;;;5050173;28;20445;-58
2022/09/04 01:04:42;;;;;;;4.68;2.05;;;15.80;99.90;;;;;;5045386;28;20507;-58
2022/09/04 01:07:36;;;;;;;3.60;1.80;;;15.80;99.90;;;;;;5011583;28;20056;-58
2022/09/04 01:10:18;;;;;;;5.28;2.05;;;15.80;99.90;;;;;;5033191;28;20136;-58
2022/09/04 01:13:19;;;;;;;3.97;1.95;;;15.70;99.90;;;;;;5045970;28;20045;-58
2022/09/04 01:16:00;;;;;;;3.80;1.95;;;15.60;99.90;;;;;;5021217;28;20192;-58
2022/09/04 01:18:45;;;;;;;5.07;2.00;;;15.60;99.90;;;;;;5049732;28;20045;-59
2022/09/04 01:21:49;;;;;;;3.72;2.50;;;15.50;99.90;;;;;;5050499;28;20045;-58
2022/09/04 01:24:24;;;;;;;2.83;1.90;;;15.50;99.90;;;;;;5036790;28;20125;-58
2022/09/04 01:27:16;;;;;;;2.50;2.00;;;15.40;99.90;;;;;;5049645;28;20041;-58
2022/09/04 01:30:04;;;;;;;5.55;2.17;;;15.40;99.90;;;;;;4989252;28;20066;-58
2022/09/04 01:32:47;;;;;;;4.18;2.00;;;15.40;99.90;;;;;;5038600;28;20057;-58
2022/09/04 01:35:38;;;;;;;6.07;1.75;;;15.40;99.90;;;;;;5031288;28;20046;-58
2022/09/04 01:38:26;;;;;;;3.80;1.63;;;15.40;99.90;;;;;;5035645;28;20041;-60
2022/09/04 01:41:00;;;;;;;4.57;2.03;;;15.40;99.90;;;;;;5031432;28;20034;-58
2022/09/04 01:43:25;;;;;;;3.42;2.08;;;15.40;99.90;;;;;;5048788;28;21215;-58
2022/09/04 01:46:16;;;;;;;4.88;2.28;;;15.40;99.90;;;;;;5050611;28;20098;-58
2022/09/04 01:48:46;;;;;;;4.93;2.25;;;15.30;99.90;;;;;;5044994;28;20496;-59
2022/09/04 01:51:32;;;;;;;4.05;2.10;;;15.30;99.90;;;;;;5032757;28;20036;-57
2022/09/04 01:54:10;;;;;;;;;;;15.20;99.90;;;;;;5041373;28;20080;-59
2022/09/04 01:56:47;;;;;;;5.53;1.85;;;15.20;99.90;;;;;;5037043;28;19917;-58
2022/09/04 01:59:31;;;;;;;5.93;2.08;;;15.10;99.90;;;;;;5049478;28;20397;-58
2022/09/04 02:02:34;;;;;;;2.75;1.80;;;15.10;99.90;;;;;;5049320;28;20111;-58
2022/09/04 02:05:12;;;;;;;5.80;1.98;;;15.10;99.90;;;;;;5048192;28;20192;-58
2022/09/04 02:07:48;;;;;;;2.53;2.00;;;15.10;99.90;;;;;;5029076;28;20038;-58
2022/09/04 02:10:43;;;;;;;4.78;2.10;;;15.10;99.90;;;;;;5033989;28;20053;-59
2022/09/04 02:13:21;;;;;;;6.95;2.38;;;15.10;1.00;;;;;;5044563;28;20072;-58
2022/09/04 02:16:04;;;;;;;5.38;2.15;;;15.10;1.00;;;;;;5052933;28;20053;-58
2022/09/04 02:18:54;;;;;;;3.17;2.00;;;15.10;1.00;;;;;;5045984;28;20049;-58
2022/09/04 02:21:49;;;;;;;4.40;1.98;;;15.10;1.00;;;;;;5054252;28;20069;-58
2022/09/04 02:24:41;;;;;;;3.00;2.05;;;15.10;1.00;;;;;;4956391;28;20065;-58
2022/09/04 02:27:19;;;;;;;3.22;2.10;;;15.00;1.00;;;;;;5052952;28;20037;-58
2022/09/04 02:30:03;;;;;;;4.93;2.08;;;15.00;1.00;;;;;;5052509;28;20045;-58
2022/09/04 02:32:37;;;;;;;2.97;2.50;;;15.10;1.00;;;;;;5052731;28;20048;-58
2022/09/04 02:35:38;;;;;;;2.20;2.00;;;15.10;1.00;;;;;;5035852;28;20042;-57
2022/09/04 02:38:04;;;;;;;2.85;2.00;;;15.10;1.00;;;;;;5042093;28;20120;-59
2022/09/04 02:41:07;;;;;;;4.72;1.95;;;15.00;1.00;;;;;;5053408;28;20152;-58
2022/09/04 02:43:51;;;;;;;3.75;2.08;;;15.00;1.00;;;;;;5037291;28;20044;-59
2022/09/04 02:46:48;;;;;;;3.20;2.05;;;15.00;1.00;;;;;;5040192;28;20037;-58
2022/09/04 02:49:52;;;;;;;7.13;2.05;;;14.90;1.00;;;;;;5052379;28;20045;-58
2022/09/04 02:52:34;;;;;;;2.20;1.85;;;14.80;1.00;;;;;;5053804;28;20132;-59
2022/09/04 02:55:38;;;;;;;4.95;2.30;;;14.80;1.00;;;;;;5052739;28;20079;-58
2022/09/04 02:58:29;;;;;;;4.95;2.47;;;14.70;1.00;;;;;;5051139;28;20574;-59
2022/09/04 03:01:26;;;;;;;4.90;2.40;;;14.80;1.00;;;;;;5036184;28;20048;-58
2022/09/04 03:04:33;;;;;;;5.63;2.30;;;14.90;1.00;;;;;;5050052;28;20021;-58
2022/09/04 03:07:16;;;;;;;4.20;1.98;;;14.80;1.00;;;;;;5004733;28;20421;-60
2022/09/04 03:09:56;;;;;;;3.30;2.22;;;14.80;1.00;;;;;;5048252;28;20498;-59
2022/09/04 03:12:30;;;;;;;4.90;2.17;;;14.70;1.00;;;;;;5048913;28;20045;-58
2022/09/04 03:15:08;;;;;;;3.65;2.28;;;14.70;1.00;;;;;;5041631;28;20457;-57
2022/09/04 03:17:50;;;;;;;3.65;2.20;;;14.60;1.00;;;;;;5042807;28;20541;-59
2022/09/04 03:20:26;;;;;;;6.50;2.35;;;14.50;20.50;;;;;;5025909;28;20045;-57
2022/09/04 03:23:06;;;;;;;5.10;2.30;;;14.50;62.10;;;;;;5051088;28;20163;-57
2022/09/04 03:25:49;;;;;;;5.57;2.30;;;14.50;93.00;;;;;;5046545;28;20044;-58
2022/09/04 03:28:50;;;;;;;2.65;2.10;;;14.50;99.90;;;;;;5052406;28;20529;-61
2022/09/04 03:31:25;;;;;;;3.20;2.40;;;14.40;99.90;;;;;;5012721;28;20049;-58
2022/09/04 03:34:03;;;;;;;2.90;2.30;;;14.40;99.90;;;;;;5038678;28;20049;-58
2022/09/04 03:36:45;;;;;;;9.23;2.63;;;14.40;99.90;;;;;;5051414;28;20055;-58
2022/09/04 03:39:23;;;;;;;7.47;2.30;;;14.40;99.90;;;;;;5034359;28;20076;-57
2022/09/04 03:42:18;;;;;;;5.35;2.20;;;14.40;99.90;;;;;;5035154;28;20140;-58
2022/09/04 03:45:35;;;;;;;2.50;2.13;;;14.30;99.90;;;;;;5043985;28;20116;-58
2022/09/04 03:48:17;;;;;;;5.05;2.42;;;14.30;99.90;;;;;;4923196;29;20087;-58
2022/09/04 03:51:03;;;;;;;4.82;2.70;;;14.30;99.90;;;;;;5051432;28;20044;-58
2022/09/04 03:53:36;;;;;;;4.00;2.40;;;14.20;1.00;;;;;;5051814;28;20044;-58
2022/09/04 03:56:31;;;;;;;4.57;2.60;;;14.20;1.00;;;;;;5036714;28;20040;-59
2022/09/04 03:59:40;;;;;;;7.35;2.67;;;14.20;1.00;;;;;;5048269;28;20042;-58
2022/09/04 04:02:14;;;;;;;2.83;2.17;;;14.20;1.00;;;;;;4942478;28;20043;-58
2022/09/04 04:04:53;;;;;;;5.88;2.58;;;14.20;26.50;;;;;;4966312;28;20095;-58
2022/09/04 04:07:35;;;;;;;8.27;2.50;;;14.10;73.30;;;;;;5016072;28;20102;-59
2022/09/04 04:10:13;;;;;;;6.07;2.63;;;14.10;99.90;;;;;;5041807;28;20045;-58
2022/09/04 04:13:12;;;;;;;3.53;2.47;;;14.10;99.90;;;;;;5014510;28;20478;-58
2022/09/04 04:15:59;;;;;;;9.82;2.80;;;14.00;99.90;;;;;;5047334;28;20123;-59
2022/09/04 04:18:35;;;;;;;6.10;2.50;;;14.00;99.90;;;;;;5020495;28;20126;-58
2022/09/04 04:21:16;;;;;;;4.17;2.43;;;14.00;99.90;;;;;;5051582;28;20045;-58
2022/09/04 04:24:03;;;;;;;5.72;2.60;;;14.00;1.00;;;;;;5032978;28;20040;-60
2022/09/04 04:26:41;;;;;;;3.60;2.83;;;13.90;1.00;;;;;;5043416;28;20052;-58
2022/09/04 04:29:26;;;;;;;4.82;2.50;;;13.90;1.00;;;;;;5047302;28;20080;-58
2022/09/04 04:32:10;;;;;;;6.57;2.58;;;13.90;2.70;;;;;;5051328;28;20076;-58
2022/09/04 04:34:57;;;;;;;6.28;3.05;;;13.90;77.50;;;;;;5051154;28;20091;-58
2022/09/04 04:37:49;;;;;;;3.30;2.33;;;13.90;99.90;;;;;;5042100;28;20037;-58
2022/09/04 04:40:26;;;;;;;4.40;2.63;;;13.90;99.90;;;;;;5023166;28;20499;-57
2022/09/04 04:43:11;;;;;;;3.00;2.40;;;13.90;99.90;;;;;;5037625;28;20052;-58
2022/09/04 04:45:51;;;;;;;4.82;2.60;;;13.90;99.90;;;;;;5046311;28;20542;-57
2022/09/04 04:48:26;;;;;;;3.03;2.53;;;13.90;99.90;;;;;;5042033;28;20507;-58
2022/09/04 04:51:11;;;;;;;12.88;2.95;;;13.90;1.00;;;;;;5043607;28;20048;-58
2022/09/04 04:54:00;;;;;;;2.90;2.42;;;13.90;1.00;;;;;;5037960;28;20041;-58
2022/09/04 04:56:30;;;;;;;5.00;2.60;;;14.00;1.00;;;;;;5040051;28;20091;-59
2022/09/04 04:59:35;;;;;;;3.47;2.50;;;14.00;1.00;;;;;;5047483;28;20407;-58
2022/09/04 05:02:17;;;;;;;3.35;2.22;;;14.00;1.00;;;;;;4981430;28;20064;-59
2022/09/04 05:05:03;;;;;;;6.10;2.60;;;14.00;1.00;;;;;;5049627;28;20136;-58
2022/09/04 05:07:35;;;;;;;4.43;2.50;;;14.00;38.30;;;;;;5041537;28;20045;-58
2022/09/04 05:10:10;;;;;;;3.38;2.40;;;14.00;98.00;;;;;;5034157;28;20037;-59
2022/09/04 05:12:53;;;;;;;3.85;2.35;;;14.00;99.90;;;;;;5013688;28;20045;-58
2022/09/04 05:15:40;;;;;;;3.65;2.50;;;14.10;99.90;;;;;;5037599;28;20048;-60
2022/09/04 05:18:30;;;;;;;4.68;2.22;;;14.10;99.90;;;;;;5040908;28;20033;-58
2022/09/04 05:21:15;;;;;;;7.40;2.63;;;14.20;99.90;;;;;;5023664;28;20087;-58
2022/09/04 05:23:53;;;;;;;5.53;2.60;;;14.20;99.90;;;;;;5048430;28;20041;-57
2022/09/04 05:26:24;;;;;;;4.00;2.40;;;14.20;99.90;;;;;;5046282;28;20115;-59
2022/09/04 05:29:08;;;;;;;8.18;2.67;;;14.30;99.90;;;;;;5050658;28;20114;-58
2022/09/04 05:32:00;;;;;;;4.20;2.47;;;14.20;99.90;;;;;;5047259;28;20044;-58
2022/09/04 05:34:39;;;;;;;5.20;2.80;;;14.30;99.90;;;;;;5031213;28;20041;-59
2022/09/04 05:37:15;;;;;;;5.38;2.63;;;14.30;99.90;;;;;;5044168;28;20037;-58
2022/09/04 05:40:05;;;;;;;5.80;2.92;;;14.30;99.90;;;;;;5039860;28;20049;-58
2022/09/04 05:42:40;;;;;;;6.82;3.00;;;14.40;99.90;;;;;;5052371;28;20055;-59
2022/09/04 05:45:41;;;;;;;4.32;2.47;;;14.40;1.00;;;;;;5048975;28;20044;-58
2022/09/04 05:48:16;;;;;;;5.28;2.80;;;14.50;1.00;;;;;;5054462;28;20055;-58
2022/09/04 05:50:59;;;;;;;8.88;3.00;;;14.50;1.00;;;;;;5054217;28;20055;-59
2022/09/04 05:53:52;;;;;;;6.32;3.10;;;14.50;1.00;;;;;;5048989;28;20040;-58
2022/09/04 05:56:36;;;;;;;9.90;2.80;;;14.60;1.00;;;;;;5051112;28;20052;-58
2022/09/04 05:59:32;;;;;;;5.85;2.70;;;14.60;25.10;;;;;;5049584;28;20405;-58
2022/09/04 06:02:16;;;;;;;5.07;2.30;;;14.60;50.80;;;;;;5049530;28;20397;-59
2022/09/04 06:04:54;;;;;;;9.00;3.92;;;14.70;83.50;;;;;;5042719;28;20053;-58
2022/09/04 06:07:36;;;;;;;5.15;3.00;;;14.80;99.90;;;;;;5048504;28;20447;-58
2022/09/04 06:10:19;;;;;;;8.35;2.63;;;14.80;99.90;;;;;;5028364;28;20044;-59
2022/09/04 06:12:56;;;;;;;7.78;2.90;;;14.90;99.90;;;;;;5050768;28;20047;-58
2022/09/04 06:15:49;;;;;;;7.20;3.00;;;15.00;99.90;;;;;;5051610;28;20449;-58
2022/09/04 06:18:44;;;;;;;7.20;2.70;;;15.00;99.90;;;;;;5046776;28;20112;-59
2022/09/04 06:21:34;;;;;;;5.63;2.58;;;15.10;99.90;;;;;;5045266;28;20691;-59
2022/09/04 06:24:27;;;;;;;4.97;2.65;;;15.10;99.90;;;;;;5044399;28;20044;-58
2022/09/04 06:27:21;;;;;;;5.40;2.67;;;15.20;99.90;;;;;;5032051;28;20041;-58
2022/09/04 06:30:13;;;;;;;4.07;2.83;;;15.30;99.90;;;;;;5043701;28;20075;-58
2022/09/04 06:32:56;;;;;;;6.15;2.85;;;15.50;99.90;;;;;;5045091;28;20519;-59
2022/09/04 06:35:51;;;;;;;4.50;2.97;;;15.50;99.90;;;;;;5044680;28;20533;-59
2022/09/04 06:38:41;;;;;;;3.67;2.47;;;15.70;99.90;;;;;;5042007;28;20049;-58
2022/09/04 06:41:36;;;;;;;4.57;3.00;;;15.70;99.90;;;;;;5053563;28;20088;-59
2022/09/04 06:44:11;;;;;;;6.50;2.72;;;15.90;99.90;;;;;;5054424;28;20521;-59
2022/09/04 06:47:11;;;;;;;5.20;2.45;;;16.00;99.90;;;;;;5053098;28;20462;-58
2022/09/04 06:49:58;;;;;;;3.13;2.60;;;16.10;99.50;;;;;;5053561;28;20063;-59
2022/09/04 06:52:26;;;;;;;;;;;16.30;99.90;;;;;;5060570;28;20509;-57
2022/09/04 06:55:12;;;;;;;5.30;2.72;;;16.40;11.30;;;;;;5053794;28;19916;-58
2022/09/04 06:58:01;;;;;;;5.65;2.60;;;16.50;1.00;;;;;;5050747;28;20048;-58
2022/09/04 07:00:37;;;;;;;4.20;2.67;;;16.60;99.90;;;;;;5047787;28;20126;-59
2022/09/04 07:03:18;;;;;;;3.22;2.30;;;16.60;96.90;;;;;;5039831;28;20486;-58
2022/09/04 07:06:29;;;;;;;4.95;2.90;;;16.60;1.00;;;;;;5047481;28;20464;-58
2022/09/04 07:09:19;;;;;;;3.63;2.60;;;16.70;1.00;;;;;;5026489;28;20072;-59
2022/09/04 07:12:07;;;;;;;5.07;2.67;;;16.80;1.00;;;;;;5052576;28;20112;-58
2022/09/04 07:14:39;;;;;;;4.25;2.75;;;16.90;99.90;;;;;;5045630;28;20525;-59
2022/09/04 07:17:33;;;;;;;5.68;2.90;;;17.00;99.90;;;;;;5047488;28;20461;-59
2022/09/04 07:20:17;;;;;;;4.75;2.80;;;17.00;99.90;;;;;;5048640;28;20033;-59
2022/09/04 07:23:15;;;;;;;5.85;2.78;;;17.20;99.90;;;;;;5047586;28;20411;-58
2022/09/04 07:26:02;;;;;;;8.43;2.65;;;17.30;99.90;;;;;;5046829;28;20055;-59
2022/09/04 07:28:42;;;;;;;5.55;3.28;;;17.40;99.90;;;;;;5048157;28;20033;-58
2022/09/04 07:31:23;;;;;;;5.15;2.50;;;17.60;99.90;;;;;;5051885;28;20494;-59
2022/09/04 07:33:57;;;;;;;5.05;2.83;;;17.80;64.10;;;;;;5046792;28;20032;-58
2022/09/04 07:36:43;;;;;;;6.55;2.85;;;17.80;1.00;;;;;;5041480;28;20107;-58
2022/09/04 07:39:18;;;;;;;;;;;18.00;1.00;;;;;;5048411;28;20036;-60
2022/09/04 07:41:58;;;;;;;6.10;2.80;;;18.10;1.00;;;;;;5046325;28;19999;-58
2022/09/04 07:44:48;;;;;;;2.85;2.55;;;18.30;1.00;;;;;;5050062;28;20088;-59
2022/09/04 07:47:29;;;;;;;5.85;3.30;;;18.60;99.90;;;;;;5048694;28;20076;-59
2022/09/04 07:49:59;;;;;;;12.55;3.65;;;18.90;99.90;;;;;;5046511;28;20036;-60
2022/09/04 07:52:42;;;;;;;6.97;3.33;;;19.10;99.90;;;;;;5033103;28;20151;-60
2022/09/04 07:55:22;;;;;;;5.47;3.40;;;19.50;99.90;;;;;;5050142;28;20414;-60
2022/09/04 07:58:20;;;;;;;5.00;3.80;;;19.70;26.60;;;;;;5046359;28;20040;-59
2022/09/04 08:01:06;;;;;;;6.22;3.70;;;20.00;1.00;;;;;;5047394;28;20067;-60
2022/09/04 08:04:10;;;;;;;5.22;3.97;;;20.10;1.00;;;;;;5046744;28;20127;-59
2022/09/04 08:06:44;;;;;;;7.93;4.50;;;20.40;1.00;;;;;;5046882;28;20128;-59
2022/09/04 08:09:39;;;;;;;5.03;3.10;;;20.60;99.90;;;;;;5044722;28;20065;-58
2022/09/04 08:12:35;;;;;;;7.38;3.70;;;20.80;99.90;;;;;;5046113;28;20128;-58
2022/09/04 08:15:12;;;;;;;7.70;4.43;;;21.10;99.90;;;;;;5044212;28;20132;-59
2022/09/04 08:18:08;;;;;;;6.65;4.10;;;21.20;99.90;;;;;;5046692;28;20128;-59
2022/09/04 08:20:53;;;;;;;5.17;4.10;;;21.30;96.30;;;;;;5045992;28;20036;-58
2022/09/04 08:23:47;;;;;;;7.05;4.25;;;21.50;61.50;;;;;;5050287;28;20695;-58
2022/09/04 08:26:34;;;;;;;6.22;4.05;;;21.70;32.20;;;;;;5047978;28;20120;-60
2022/09/04 08:29:09;;;;;;;6.35;4.55;;;21.80;1.00;;;;;;5040993;28;20094;-59
2022/09/04 08:32:21;;;;;;;7.80;4.82;;;21.90;1.00;;;;;;5050420;28;20080;-60
2022/09/04 08:35:15;;;;;;;8.63;4.05;;;22.10;1.00;;;;;;5047120;28;20039;-61
2022/09/04 08:37:53;;;;;;;8.38;4.40;;;22.30;1.00;;;;;;5032529;28;20037;-62
2022/09/04 08:40:34;;;;;;;6.35;4.93;;;22.40;1.00;;;;;;5037196;28;20077;-60
2022/09/04 08:43:23;;;;;;;9.38;3.83;;;22.30;1.00;;;;;;5047572;28;20120;-58
2022/09/04 08:46:13;;;;;;;6.57;4.25;;;22.20;1.00;;;;;;5037916;28;20044;-60
2022/09/04 08:48:54;;;;;;;6.53;4.45;;;22.20;1.00;;;;;;5043506;28;20048;-59
2022/09/04 08:51:40;;;;;;;8.05;4.30;;;22.40;1.00;;;;;;5042305;28;20107;-59
2022/09/04 08:54:29;;;;;;;7.15;5.03;;;22.70;1.00;;;;;;5035270;28;20049;-61
2022/09/04 08:57:15;;;;;;;6.45;5.03;;;22.80;1.00;;;;;;5046017;28;20392;-61
2022/09/04 09:00:06;;;;;;;7.03;4.60;;;22.70;99.90;;;;;;5040543;28;20052;-59
2022/09/04 09:03:04;;;;;;;5.82;4.68;;;22.90;99.90;;;;;;5048757;28;20044;-60
2022/09/04 09:05:54;;;;;;;6.22;4.75;;;22.80;99.90;;;;;;5020339;28;20061;-59
2022/09/04 09:08:34;;;;;;;5.95;4.13;;;22.90;99.90;;;;;;5026778;28;20041;-59
2022/09/04 09:11:16;;;;;;;5.18;3.67;;;23.00;99.90;;;;;;5025683;28;20081;-59
2022/09/04 09:14:06;;;;;;;4.75;4.00;;;23.20;99.90;;;;;;5027224;28;20042;-58
2022/09/04 09:16:43;;;;;;;6.07;4.40;;;23.30;99.90;;;;;;5022897;28;20029;-58
2022/09/04 09:19:36;;;;;;;6.72;4.25;;;23.40;99.90;;;;;;5019900;28;20064;-61
2022/09/04 09:22:46;;;;;;;5.95;4.13;;;23.40;99.90;;;;;;5027183;28;20034;-60
2022/09/04 09:25:20;;;;;;;7.38;4.00;;;23.40;99.90;;;;;;5028367;28;20483;-60
2022/09/04 09:28:13;;;;;;;8.25;4.35;;;23.40;99.90;;;;;;5028223;28;20040;-58
2022/09/04 09:31:16;;;;;;;9.77;4.07;;;23.50;99.90;;;;;;5033040;28;20133;-59
2022/09/04 09:34:23;;;;;;;6.47;3.95;;;23.70;99.90;;;;;;5027032;28;20498;-59
2022/09/04 09:37:23;;;;;;;6.10;4.03;;;23.60;99.90;;;;;;5033729;28;20063;-60
2022/09/04 09:39:59;;;;;;;6.22;4.28;;;23.50;99.90;;;;;;5024043;28;20045;-59
2022/09/04 09:42:56;;;;;;;7.32;4.45;;;23.60;99.90;;;;;;5029428;28;20045;-59
2022/09/04 09:45:40;;;;;;;5.35;3.88;;;23.60;99.90;;;;;;5022156;28;20060;-59
2022/09/04 09:48:12;;;;;;;4.93;3.72;;;23.60;99.90;;;;;;5027685;28;20120;-59
2022/09/04 09:50:59;;;;;;;5.20;3.50;;;23.60;99.90;;;;;;5025850;28;20042;-60
2022/09/04 09:53:43;;;;;;;4.47;3.45;;;23.60;99.90;;;;;;5031970;28;20422;-59
2022/09/04 09:56:22;;;;;;;4.35;3.72;;;23.40;99.90;;;;;;5023312;28;20053;-59
2022/09/04 09:59:03;;;;;;;5.20;3.40;;;23.40;99.90;;;;;;5022108;28;20133;-60
2022/09/04 10:01:40;;;;;;;9.20;4.00;;;23.40;99.90;;;;;;5028567;28;20120;-59
2022/09/04 10:04:25;;;;;;;5.40;3.55;;;23.60;99.90;;;;;;5031068;28;20056;-59
2022/09/04 10:07:30;;;;;;;7.53;3.70;;;23.70;99.90;;;;;;5050909;28;20551;-59
2022/09/04 10:10:21;;;;;;;4.68;3.75;;;23.80;99.90;;;;;;5036287;28;20049;-59
2022/09/04 10:13:28;;;;;;;4.00;3.38;;;23.90;99.90;;;;;;5048678;28;20044;-59
2022/09/04 10:16:07;;;;;;;4.45;3.10;;;24.10;99.90;;;;;;5001495;28;20545;-59
2022/09/04 10:19:06;;;;;;;4.38;3.30;;;24.20;99.90;;;;;;5001105;28;20042;-58
2022/09/04 10:21:37;;;;;;;5.22;3.15;;;24.20;99.90;;;;;;5040019;28;20124;-58
2022/09/04 10:24:05;;;;;;;4.28;2.85;;;24.20;99.90;;;;;;5044445;28;20037;-59
2022/09/04 10:26:34;;;;;;;6.28;2.97;;;24.10;99.90;;;;;;5022949;28;20104;-59
2022/09/04 10:29:08;;;;;;;4.25;2.85;;;24.20;99.90;;;;;;5050871;28;20102;-60
2022/09/04 10:32:11;;;;;;;3.78;2.75;;;24.20;99.90;;;;;;5044231;28;20426;-59
2022/09/04 10:34:55;;;;;;;2.78;2.35;;;24.40;99.90;;;;;;5049367;28;20045;-59
2022/09/04 10:38:08;;;;;;;3.78;2.60;;;24.50;99.90;;;;;;5050051;28;20063;-59
2022/09/04 10:41:00;;;;;;;3.53;2.70;;;24.60;99.90;;;;;;5003607;28;20518;-58
2022/09/04 10:44:05;;;;;;;5.13;2.67;;;24.60;85.90;;;;;;4988579;28;20058;-59
2022/09/04 10:46:36;;;;;;;4.13;2.65;;;24.70;68.90;;;;;;5031691;28;20048;-61
2022/09/04 10:49:33;;;;;;;4.32;2.70;;;25.10;84.40;;;;;;5048868;28;20102;-60
2022/09/04 10:52:03;;;;;;;;;;;25.30;53.10;;;;;;5049256;28;20029;-60
2022/09/04 10:54:43;;;;;;;2.65;2.42;;;25.40;36.20;;;;;;5046507;28;19916;-60
2022/09/04 10:57:47;;;;;;;2.78;2.20;;;25.50;15.40;;;;;;5046695;28;20064;-62
2022/09/04 11:00:15;;;;;;;2.65;2.40;;;25.30;1.00;;;;;;5046358;28;20991;-60
2022/09/04 11:03:02;;;;;;;3.83;2.63;;;25.20;1.00;;;;;;5047882;28;20044;-60
2022/09/04 11:05:49;;;;;;;5.10;2.60;;;25.20;1.00;;;;;;5006493;28;1016050;-61
2022/09/04 11:08:48;;;;;;;2.60;2.25;;;25.40;1.00;;;;;;5044988;28;20048;-60
2022/09/04 11:11:39;;;;;;;2.50;2.30;;;25.40;1.00;;;;;;5049662;28;20041;-60
2022/09/04 11:14:48;;;;;;;2.08;1.88;;;25.50;1.00;;;;;;5051749;28;20067;-60
2022/09/04 11:17:55;;;;;;;2.47;2.10;;;25.40;1.00;;;;;;5051253;28;20374;-60
2022/09/04 11:20:58;;;;;;;4.55;2.40;;;25.10;1.00;;;;;;5050522;28;20075;-60
2022/09/04 11:23:52;;;;;;;3.30;2.53;;;25.10;1.00;;;;;;5047677;28;20041;-60
2022/09/04 11:26:38;;;;;;;2.45;2.08;;;25.20;1.00;;;;;;5043794;28;20550;-59
2022/09/04 11:29:54;;;;;;;8.52;2.40;;;25.10;1.00;;;;;;5050386;28;20457;-60
2022/09/04 11:33:03;;;;;;;5.57;2.60;;;25.10;1.00;;;;;;5029626;28;20153;-60
2022/09/04 11:36:04;;;;;;;4.35;2.28;;;25.10;1.00;;;;;;4999692;28;20057;-60
2022/09/04 11:39:06;;;;;;;4.57;2.40;;;25.10;1.00;;;;;;5009006;28;20391;-60
2022/09/04 11:42:08;;;;;;;4.78;2.40;;;25.10;1.00;;;;;;5047500;28;20105;-60
2022/09/04 11:44:33;;;;;;;4.68;2.55;;;25.10;1.00;;;;;;5025053;28;20044;-61
2022/09/04 11:47:36;;;;;;;3.25;2.17;;;25.40;1.00;;;;;;5045650;28;20048;-59
2022/09/04 11:50:21;;;;;;;2.72;2.30;;;25.10;1.00;;;;;;5047921;28;20041;-59
2022/09/04 11:53:25;;;;;;;2.95;2.45;;;25.20;1.00;;;;;;5048606;28;20120;-60
2022/09/04 11:55:56;;;;;;;4.63;2.58;;;25.20;1.00;;;;;;5043340;28;20106;-60
2022/09/04 11:58:35;;;;;;;4.65;2.47;;;25.30;1.00;;;;;;5046217;28;20045;-60
2022/09/04 12:01:18;;;;;;;4.15;2.72;;;25.30;1.00;;;;;;5048612;28;20126;-59
2022/09/04 12:03:56;;;;;;;3.10;2.55;;;25.30;1.00;;;;;;5031283;28;20052;-63
2022/09/04 12:06:50;;;;;;;2.92;2.40;;;25.20;1.00;;;;;;5041296;28;20047;-62
2022/09/04 12:09:33;;;;;;;3.30;2.35;;;25.30;1.00;;;;;;5041475;28;20445;-62
2022/09/04 12:12:30;;;;;;;3.80;2.50;;;25.30;1.00;;;;;;5044077;28;20487;-62
2022/09/04 12:14:55;;;;;;;;;;;25.40;1.00;;;;;;5049595;28;20513;-62
2022/09/04 12:18:08;;;;;;;3.60;2.42;;;25.60;1.00;;;;;;5047900;28;19924;-62
2022/09/04 12:21:14;;;;;;;4.75;3.05;;;25.40;1.00;;;;;;5047914;28;20029;-62
2022/09/04 12:24:17;;;;;;;4.80;2.67;;;25.40;1.00;;;;;;5044829;28;20506;-62
2022/09/04 12:27:10;;;;;;;5.28;2.47;;;25.30;1.00;;;;;;5053734;28;20044;-62
2022/09/04 12:30:02;;;;;;;4.32;2.97;;;25.40;1.00;;;;;;5042812;28;20033;-62
2022/09/04 12:32:49;;;;;;;6.38;2.75;;;25.50;1.00;;;;;;5047260;28;20418;-62
2022/09/04 12:35:21;;;;;;;3.22;2.40;;;25.50;1.00;;;;;;5047044;28;20045;-62
2022/09/04 12:38:08;;;;;;;5.68;3.00;;;25.70;1.00;;;;;;5047463;28;20037;-61
2022/09/04 12:40:55;;;;;;;2.92;2.63;;;25.80;1.00;;;;;;5048073;28;20040;-62
2022/09/04 12:43:44;;;;;;;4.68;2.80;;;25.80;1.00;;;;;;5045307;28;20156;-62
2022/09/04 12:46:49;;;;;;;4.07;2.67;;;25.80;1.00;;;;;;5046022;28;20041;-62
2022/09/04 12:49:45;;;;;;;4.95;2.80;;;25.80;1.00;;;;;;5044003;28;20126;-62
2022/09/04 12:52:10;;;;;;;4.38;3.20;;;25.90;1.00;;;;;;5042366;28;20051;-63
2022/09/04 12:55:00;;;;;;;6.20;2.50;;;26.00;1.00;;;;;;5046796;28;20037;-62
2022/09/04 12:57:39;;;;;;;4.68;2.60;;;26.00;1.00;;;;;;5044499;28;20065;-63
2022/09/04 13:00:10;;;;;;;4.22;2.88;;;26.00;1.00;;;;;;5048054;28;20122;-62
2022/09/04 13:03:01;;;;;;;6.70;3.67;;;26.10;1.00;;;;;;5047971;28;20086;-62
2022/09/04 13:05:41;;;;;;;6.05;2.75;;;26.20;1.00;;;;;;5027253;28;20063;-62
2022/09/04 13:08:32;;;;;;;7.82;3.20;;;26.20;1.00;;;;;;5042779;28;20037;-62
2022/09/04 13:11:12;;;;;;;3.40;2.85;;;26.10;1.00;;;;;;5047004;28;20041;-63
2022/09/04 13:13:44;;;;;;;3.90;2.85;;;26.10;1.00;;;;;;5048787;28;20041;-62
2022/09/04 13:16:12;;;;;;;3.90;2.40;;;26.20;1.00;;;;;;5047892;28;20048;-62
2022/09/04 13:18:57;;;;;;;6.93;3.17;;;26.20;1.00;;;;;;5047253;28;20076;-61
2022/09/04 13:21:38;;;;;;;4.85;2.88;;;26.20;1.00;;;;;;5047938;28;20064;-62
2022/09/04 13:24:24;;;;;;;5.72;3.40;;;26.20;1.00;;;;;;5030529;28;20048;-62
2022/09/04 13:27:07;;;;;;;4.53;3.00;;;26.30;1.00;;;;;;5044242;28;20046;-62
2022/09/04 13:29:57;;;;;;;4.45;2.70;;;26.40;1.00;;;;;;5028236;28;20041;-62
2022/09/04 13:32:23;;;;;;;3.42;2.60;;;26.40;1.00;;;;;;5025384;28;20071;-62
2022/09/04 13:34:51;;;;;;;6.43;2.88;;;26.30;1.00;;;;;;5033513;28;20072;-62
2022/09/04 13:37:32;;;;;;;2.53;2.10;;;26.30;1.00;;;;;;5048158;28;20036;-62
2022/09/04 13:40:34;;;;;;;4.22;2.85;;;26.30;1.00;;;;;;5047373;28;20082;-62
2022/09/04 13:43:09;;;;;;;7.28;2.80;;;26.00;1.00;;;;;;5040867;28;20049;-62
2022/09/04 13:45:54;;;;;;;9.43;2.70;;;26.10;1.00;;;;;;5044657;28;20069;-62
2022/09/04 13:48:43;;;;;;;3.53;3.13;;;26.00;1.00;;;;;;5041867;28;20041;-62
2022/09/04 13:51:21;;;;;;;3.05;2.50;;;26.00;1.00;;;;;;5045703;28;20040;-62
2022/09/04 13:53:56;;;;;;;4.55;2.88;;;26.00;1.00;;;;;;5045282;28;20043;-62
2022/09/04 13:56:29;;;;;;;4.32;2.97;;;26.00;1.00;;;;;;5045853;28;20041;-62
2022/09/04 13:59:07;;;;;;;4.55;3.10;;;26.00;1.00;;;;;;5042424;28;20398;-62
2022/09/04 14:01:34;;;;;;;4.28;3.40;;;26.00;1.00;;;;;;5048030;28;20041;-62
2022/09/04 14:04:06;;;;;;;4.47;3.15;;;26.10;1.00;;;;;;5050406;28;20033;-62
2022/09/04 14:06:35;;;;;;;6.63;3.60;;;26.10;1.00;;;;;;5050936;28;20037;-62
2022/09/04 14:09:04;;;;;;;4.38;3.22;;;26.20;1.00;;;;;;5046072;28;20395;-61
2022/09/04 14:11:36;;;;;;;4.32;3.05;;;26.10;1.00;;;;;;5051021;28;20048;-62
2022/09/04 14:14:29;;;;;;;4.05;2.47;;;26.00;1.00;;;;;;5043789;28;20052;-62
2022/09/04 14:16:58;;;;;;;6.68;3.00;;;26.10;1.00;;;;;;5024861;28;20052;-62
2022/09/04 14:19:34;;;;;;;4.15;3.10;;;26.00;1.00;;;;;;5051416;28;20081;-62
2022/09/04 14:22:23;;;;;;;5.88;3.05;;;26.00;1.00;;;;;;5049869;28;20502;-63
2022/09/04 14:25:01;;;;;;;5.10;3.00;;;26.10;1.00;;;;;;5031891;28;20388;-62
2022/09/04 14:27:38;;;;;;;5.85;2.80;;;26.10;1.00;;;;;;5047906;28;20403;-62
2022/09/04 14:30:14;;;;;;;6.47;2.75;;;26.20;1.00;;;;;;5052734;28;20037;-62